sensor_id;sensor_type;location;lat;lon;timestamp;P1;durP1;ratioP1;P2;durP2;ratioP2
70078;SDS011;57451;52.496;13.456;2023-08-31T00:01:38;5.40;;;3.90;;
70078;SDS011;57451;52.496;13.456;2023-08-31T00:04:06;5.85;;;4.00;;
70078;SDS011;57451;52.496;13.456;2023-08-31T00:06:39;10.32;;;4.28;;
70078;SDS011;57451;52.496;13.456;2023-08-31T00:09:06;6.18;;;3.97;;
70078;SDS011;57451;52.496;13.456;2023-08-31T00:11:36;6.77;;;4.00;;
70078;SDS011;57451;52.496;13.456;2023-08-31T00:14:03;6.50;;;3.90;;
70078;SDS011;57451;52.496;13.456;2023-08-31T00:16:31;7.40;;;4.10;;
70078;SDS011;57451;52.496;13.456;2023-08-31T00:19:00;6.32;;;4.15;;
70078;SDS011;57451;52.496;13.456;2023-08-31T00:21:27;6.97;;;4.30;;
70078;SDS011;57451;52.496;13.456;2023-08-31T00:23:56;6.33;;;4.20;;
70078;SDS011;57451;52.496;13.456;2023-08-31T00:26:23;5.43;;;3.60;;
70078;SDS011;57451;52.496;13.456;2023-08-31T00:28:52;6.35;;;3.95;;
70078;SDS011;57451;52.496;13.456;2023-08-31T00:31:21;6.55;;;3.97;;
70078;SDS011;57451;52.496;13.456;2023-08-31T00:33:49;6.88;;;3.78;;
70078;SDS011;57451;52.496;13.456;2023-08-31T00:36:17;7.07;;;4.00;;
70078;SDS011;57451;52.496;13.456;2023-08-31T00:38:45;8.65;;;3.90;;
70078;SDS011;57451;52.496;13.456;2023-08-31T00:41:13;5.85;;;3.88;;
70078;SDS011;57451;52.496;13.456;2023-08-31T00:43:41;6.57;;;3.95;;
70078;SDS011;57451;52.496;13.456;2023-08-31T00:46:08;6.57;;;3.85;;
70078;SDS011;57451;52.496;13.456;2023-08-31T00:48:36;5.83;;;3.53;;
70078;SDS011;57451;52.496;13.456;2023-08-31T00:51:03;6.35;;;3.65;;
70078;SDS011;57451;52.496;13.456;2023-08-31T00:53:33;5.72;;;3.70;;
70078;SDS011;57451;52.496;13.456;2023-08-31T00:56:01;6.50;;;3.53;;
70078;SDS011;57451;52.496;13.456;2023-08-31T00:58:32;6.35;;;3.67;;
70078;SDS011;57451;52.496;13.456;2023-08-31T01:01:01;7.20;;;3.67;;
70078;SDS011;57451;52.496;13.456;2023-08-31T01:03:35;6.28;;;3.85;;
70078;SDS011;57451;52.496;13.456;2023-08-31T01:06:12;6.22;;;3.80;;
70078;SDS011;57451;52.496;13.456;2023-08-31T01:08:47;5.82;;;3.88;;
70078;SDS011;57451;52.496;13.456;2023-08-31T01:11:31;5.90;;;3.25;;
70078;SDS011;57451;52.496;13.456;2023-08-31T01:14:19;5.27;;;3.50;;
70078;SDS011;57451;52.496;13.456;2023-08-31T01:16:50;5.18;;;3.28;;
70078;SDS011;57451;52.496;13.456;2023-08-31T01:19:23;5.45;;;3.28;;
70078;SDS011;57451;52.496;13.456;2023-08-31T01:22:03;7.00;;;3.83;;
70078;SDS011;57451;52.496;13.456;2023-08-31T01:24:36;6.32;;;3.45;;
70078;SDS011;57451;52.496;13.456;2023-08-31T01:27:05;7.27;;;3.80;;
70078;SDS011;57451;52.496;13.456;2023-08-31T01:29:32;5.05;;;3.28;;
70078;SDS011;57451;52.496;13.456;2023-08-31T01:31:59;5.75;;;3.63;;
70078;SDS011;57451;52.496;13.456;2023-08-31T01:34:27;5.75;;;3.53;;
70078;SDS011;57451;52.496;13.456;2023-08-31T01:36:56;5.10;;;3.30;;
70078;SDS011;57451;52.496;13.456;2023-08-31T01:39:29;5.20;;;3.00;;
70078;SDS011;57451;52.496;13.456;2023-08-31T01:42:07;5.85;;;3.15;;
70078;SDS011;57451;52.496;13.456;2023-08-31T01:44:37;5.93;;;3.17;;
70078;SDS011;57451;52.496;13.456;2023-08-31T01:47:05;4.90;;;3.20;;
70078;SDS011;57451;52.496;13.456;2023-08-31T01:49:37;5.43;;;3.28;;
70078;SDS011;57451;52.496;13.456;2023-08-31T01:52:04;5.57;;;3.33;;
70078;SDS011;57451;52.496;13.456;2023-08-31T01:54:33;5.05;;;2.88;;
70078;SDS011;57451;52.496;13.456;2023-08-31T01:57:01;5.35;;;3.30;;
70078;SDS011;57451;52.496;13.456;2023-08-31T01:59:31;5.53;;;2.95;;
70078;SDS011;57451;52.496;13.456;2023-08-31T02:01:59;5.40;;;3.17;;
70078;SDS011;57451;52.496;13.456;2023-08-31T02:04:27;4.63;;;2.90;;
70078;SDS011;57451;52.496;13.456;2023-08-31T02:06:56;5.35;;;2.67;;
70078;SDS011;57451;52.496;13.456;2023-08-31T02:09:24;4.57;;;2.75;;
70078;SDS011;57451;52.496;13.456;2023-08-31T02:11:51;6.35;;;2.72;;
70078;SDS011;57451;52.496;13.456;2023-08-31T02:14:19;5.57;;;3.22;;
70078;SDS011;57451;52.496;13.456;2023-08-31T02:16:48;4.57;;;2.67;;
70078;SDS011;57451;52.496;13.456;2023-08-31T02:19:15;5.43;;;2.60;;
70078;SDS011;57451;52.496;13.456;2023-08-31T02:21:43;4.40;;;2.70;;
70078;SDS011;57451;52.496;13.456;2023-08-31T02:24:12;5.00;;;2.72;;
70078;SDS011;57451;52.496;13.456;2023-08-31T02:26:40;4.40;;;2.50;;
70078;SDS011;57451;52.496;13.456;2023-08-31T02:29:07;4.30;;;2.33;;
70078;SDS011;57451;52.496;13.456;2023-08-31T02:31:34;4.53;;;2.15;;
70078;SDS011;57451;52.496;13.456;2023-08-31T02:34:05;3.90;;;2.03;;
70078;SDS011;57451;52.496;13.456;2023-08-31T02:36:33;4.10;;;2.05;;
70078;SDS011;57451;52.496;13.456;2023-08-31T02:39:00;4.00;;;1.95;;
70078;SDS011;57451;52.496;13.456;2023-08-31T02:41:28;4.00;;;2.00;;
70078;SDS011;57451;52.496;13.456;2023-08-31T02:43:56;4.38;;;1.85;;
70078;SDS011;57451;52.496;13.456;2023-08-31T02:46:25;4.00;;;2.08;;
70078;SDS011;57451;52.496;13.456;2023-08-31T02:48:52;3.60;;;1.90;;
70078;SDS011;57451;52.496;13.456;2023-08-31T02:51:21;4.47;;;1.95;;
70078;SDS011;57451;52.496;13.456;2023-08-31T02:53:48;4.00;;;2.07;;
70078;SDS011;57451;52.496;13.456;2023-08-31T02:56:16;4.15;;;2.00;;
70078;SDS011;57451;52.496;13.456;2023-08-31T02:58:44;4.53;;;2.20;;
70078;SDS011;57451;52.496;13.456;2023-08-31T03:01:13;4.40;;;2.15;;
70078;SDS011;57451;52.496;13.456;2023-08-31T03:03:45;5.32;;;2.40;;
70078;SDS011;57451;52.496;13.456;2023-08-31T03:06:13;3.83;;;2.00;;
70078;SDS011;57451;52.496;13.456;2023-08-31T03:08:43;4.68;;;2.03;;
70078;SDS011;57451;52.496;13.456;2023-08-31T03:11:11;4.40;;;2.10;;
70078;SDS011;57451;52.496;13.456;2023-08-31T03:13:41;4.10;;;1.92;;
70078;SDS011;57451;52.496;13.456;2023-08-31T03:16:08;4.13;;;2.05;;
70078;SDS011;57451;52.496;13.456;2023-08-31T03:18:36;4.70;;;1.90;;
70078;SDS011;57451;52.496;13.456;2023-08-31T03:21:04;4.30;;;2.03;;
70078;SDS011;57451;52.496;13.456;2023-08-31T03:23:31;4.10;;;1.83;;
70078;SDS011;57451;52.496;13.456;2023-08-31T03:26:05;4.20;;;1.80;;
70078;SDS011;57451;52.496;13.456;2023-08-31T03:28:33;4.30;;;1.90;;
70078;SDS011;57451;52.496;13.456;2023-08-31T03:31:01;4.10;;;1.90;;
70078;SDS011;57451;52.496;13.456;2023-08-31T03:33:28;4.40;;;1.77;;
70078;SDS011;57451;52.496;13.456;2023-08-31T03:35:59;5.65;;;1.90;;
70078;SDS011;57451;52.496;13.456;2023-08-31T03:38:28;5.50;;;2.10;;
70078;SDS011;57451;52.496;13.456;2023-08-31T03:40:55;4.20;;;2.13;;
70078;SDS011;57451;52.496;13.456;2023-08-31T03:43:25;3.80;;;1.97;;
70078;SDS011;57451;52.496;13.456;2023-08-31T03:45:53;4.05;;;2.08;;
70078;SDS011;57451;52.496;13.456;2023-08-31T03:48:23;4.72;;;2.28;;
70078;SDS011;57451;52.496;13.456;2023-08-31T03:50:51;4.53;;;2.00;;
70078;SDS011;57451;52.496;13.456;2023-08-31T03:53:21;5.30;;;2.20;;
70078;SDS011;57451;52.496;13.456;2023-08-31T03:55:51;4.07;;;1.90;;
70078;SDS011;57451;52.496;13.456;2023-08-31T03:58:19;5.50;;;2.15;;
70078;SDS011;57451;52.496;13.456;2023-08-31T04:00:51;4.10;;;2.13;;
70078;SDS011;57451;52.496;13.456;2023-08-31T04:03:19;5.50;;;2.35;;
70078;SDS011;57451;52.496;13.456;2023-08-31T04:05:47;4.78;;;2.13;;
70078;SDS011;57451;52.496;13.456;2023-08-31T04:08:15;5.10;;;2.33;;
70078;SDS011;57451;52.496;13.456;2023-08-31T04:10:42;5.95;;;2.70;;
70078;SDS011;57451;52.496;13.456;2023-08-31T04:13:09;6.15;;;2.88;;
70078;SDS011;57451;52.496;13.456;2023-08-31T04:15:37;5.40;;;2.70;;
70078;SDS011;57451;52.496;13.456;2023-08-31T04:18:07;5.93;;;3.03;;
70078;SDS011;57451;52.496;13.456;2023-08-31T04:20:34;6.27;;;3.17;;
70078;SDS011;57451;52.496;13.456;2023-08-31T04:23:02;6.05;;;3.22;;
70078;SDS011;57451;52.496;13.456;2023-08-31T04:25:29;8.93;;;3.22;;
70078;SDS011;57451;52.496;13.456;2023-08-31T04:28:00;6.80;;;3.42;;
70078;SDS011;57451;52.496;13.456;2023-08-31T04:30:27;5.85;;;3.08;;
70078;SDS011;57451;52.496;13.456;2023-08-31T04:32:54;7.07;;;3.50;;
70078;SDS011;57451;52.496;13.456;2023-08-31T04:35:23;5.68;;;3.20;;
70078;SDS011;57451;52.496;13.456;2023-08-31T04:37:51;7.40;;;3.70;;
70078;SDS011;57451;52.496;13.456;2023-08-31T04:40:18;6.82;;;4.13;;
70078;SDS011;57451;52.496;13.456;2023-08-31T04:42:45;7.47;;;3.85;;
70078;SDS011;57451;52.496;13.456;2023-08-31T04:45:13;6.47;;;3.87;;
70078;SDS011;57451;52.496;13.456;2023-08-31T04:47:40;7.32;;;4.00;;
70078;SDS011;57451;52.496;13.456;2023-08-31T04:50:08;7.93;;;4.50;;
70078;SDS011;57451;52.496;13.456;2023-08-31T04:52:37;8.05;;;4.47;;
70078;SDS011;57451;52.496;13.456;2023-08-31T04:55:05;7.88;;;4.30;;
70078;SDS011;57451;52.496;13.456;2023-08-31T04:57:39;8.23;;;4.57;;
70078;SDS011;57451;52.496;13.456;2023-08-31T05:00:07;8.13;;;4.90;;
70078;SDS011;57451;52.496;13.456;2023-08-31T05:02:36;8.20;;;4.72;;
70078;SDS011;57451;52.496;13.456;2023-08-31T05:05:03;8.73;;;4.53;;
70078;SDS011;57451;52.496;13.456;2023-08-31T05:07:32;8.25;;;4.88;;
70078;SDS011;57451;52.496;13.456;2023-08-31T05:10:00;7.27;;;4.37;;
70078;SDS011;57451;52.496;13.456;2023-08-31T05:12:28;8.93;;;4.72;;
70078;SDS011;57451;52.496;13.456;2023-08-31T05:14:56;8.63;;;4.53;;
70078;SDS011;57451;52.496;13.456;2023-08-31T05:17:23;9.63;;;4.70;;
70078;SDS011;57451;52.496;13.456;2023-08-31T05:19:50;8.57;;;5.50;;
70078;SDS011;57451;52.496;13.456;2023-08-31T05:22:18;9.63;;;5.03;;
70078;SDS011;57451;52.496;13.456;2023-08-31T05:24:45;7.45;;;4.82;;
70078;SDS011;57451;52.496;13.456;2023-08-31T05:27:14;9.57;;;5.32;;
70078;SDS011;57451;52.496;13.456;2023-08-31T05:29:41;8.60;;;4.97;;
70078;SDS011;57451;52.496;13.456;2023-08-31T05:32:08;8.65;;;5.40;;
70078;SDS011;57451;52.496;13.456;2023-08-31T05:34:36;8.70;;;5.20;;
70078;SDS011;57451;52.496;13.456;2023-08-31T05:37:06;8.55;;;5.22;;
70078;SDS011;57451;52.496;13.456;2023-08-31T05:39:34;9.35;;;5.20;;
70078;SDS011;57451;52.496;13.456;2023-08-31T05:42:01;9.63;;;5.75;;
70078;SDS011;57451;52.496;13.456;2023-08-31T05:44:31;8.48;;;5.50;;
70078;SDS011;57451;52.496;13.456;2023-08-31T05:46:58;8.33;;;4.90;;
70078;SDS011;57451;52.496;13.456;2023-08-31T05:49:25;9.93;;;5.63;;
70078;SDS011;57451;52.496;13.456;2023-08-31T05:51:53;10.73;;;5.60;;
70078;SDS011;57451;52.496;13.456;2023-08-31T05:54:21;9.48;;;5.57;;
70078;SDS011;57451;52.496;13.456;2023-08-31T05:56:48;9.50;;;5.72;;
70078;SDS011;57451;52.496;13.456;2023-08-31T05:59:16;7.70;;;5.20;;
70078;SDS011;57451;52.496;13.456;2023-08-31T06:01:44;8.65;;;5.35;;
70078;SDS011;57451;52.496;13.456;2023-08-31T06:04:12;8.48;;;5.30;;
70078;SDS011;57451;52.496;13.456;2023-08-31T06:06:39;8.63;;;5.22;;
70078;SDS011;57451;52.496;13.456;2023-08-31T06:09:06;9.25;;;5.50;;
70078;SDS011;57451;52.496;13.456;2023-08-31T06:11:34;8.33;;;5.23;;
70078;SDS011;57451;52.496;13.456;2023-08-31T06:14:02;9.55;;;5.28;;
70078;SDS011;57451;52.496;13.456;2023-08-31T06:16:30;8.82;;;5.70;;
70078;SDS011;57451;52.496;13.456;2023-08-31T06:18:59;8.50;;;5.55;;
70078;SDS011;57451;52.496;13.456;2023-08-31T06:21:26;8.82;;;5.15;;
70078;SDS011;57451;52.496;13.456;2023-08-31T06:23:53;7.90;;;4.77;;
70078;SDS011;57451;52.496;13.456;2023-08-31T06:26:21;10.45;;;4.88;;
70078;SDS011;57451;52.496;13.456;2023-08-31T06:28:48;8.73;;;5.40;;
70078;SDS011;57451;52.496;13.456;2023-08-31T06:31:17;9.75;;;5.68;;
70078;SDS011;57451;52.496;13.456;2023-08-31T06:33:46;7.72;;;5.47;;
70078;SDS011;57451;52.496;13.456;2023-08-31T06:36:14;8.87;;;4.90;;
70078;SDS011;57451;52.496;13.456;2023-08-31T06:38:42;8.93;;;5.18;;
70078;SDS011;57451;52.496;13.456;2023-08-31T06:41:09;8.30;;;5.18;;
70078;SDS011;57451;52.496;13.456;2023-08-31T06:43:36;8.05;;;5.60;;
70078;SDS011;57451;52.496;13.456;2023-08-31T06:46:04;8.30;;;4.75;;
70078;SDS011;57451;52.496;13.456;2023-08-31T06:48:50;11.20;;;5.30;;
70078;SDS011;57451;52.496;13.456;2023-08-31T06:51:19;8.80;;;5.28;;
70078;SDS011;57451;52.496;13.456;2023-08-31T06:53:50;8.27;;;4.97;;
70078;SDS011;57451;52.496;13.456;2023-08-31T06:56:18;9.50;;;5.53;;
70078;SDS011;57451;52.496;13.456;2023-08-31T06:58:45;7.97;;;5.15;;
70078;SDS011;57451;52.496;13.456;2023-08-31T07:01:12;8.50;;;5.20;;
70078;SDS011;57451;52.496;13.456;2023-08-31T07:03:40;9.77;;;5.53;;
70078;SDS011;57451;52.496;13.456;2023-08-31T07:06:08;13.25;;;5.70;;
70078;SDS011;57451;52.496;13.456;2023-08-31T07:08:36;8.82;;;5.35;;
70078;SDS011;57451;52.496;13.456;2023-08-31T07:11:07;7.85;;;5.13;;
70078;SDS011;57451;52.496;13.456;2023-08-31T07:13:34;8.60;;;5.50;;
70078;SDS011;57451;52.496;13.456;2023-08-31T07:16:01;9.18;;;5.13;;
70078;SDS011;57451;52.496;13.456;2023-08-31T07:18:29;8.15;;;4.93;;
70078;SDS011;57451;52.496;13.456;2023-08-31T07:20:57;9.05;;;5.28;;
70078;SDS011;57451;52.496;13.456;2023-08-31T07:23:24;9.43;;;5.03;;
70078;SDS011;57451;52.496;13.456;2023-08-31T07:25:56;8.20;;;4.60;;
70078;SDS011;57451;52.496;13.456;2023-08-31T07:28:24;7.63;;;5.00;;
70078;SDS011;57451;52.496;13.456;2023-08-31T07:30:59;9.18;;;5.07;;
70078;SDS011;57451;52.496;13.456;2023-08-31T07:33:27;10.90;;;4.60;;
70078;SDS011;57451;52.496;13.456;2023-08-31T07:35:57;8.13;;;4.28;;
70078;SDS011;57451;52.496;13.456;2023-08-31T07:38:26;10.77;;;5.07;;
70078;SDS011;57451;52.496;13.456;2023-08-31T07:40:55;8.93;;;4.63;;
70078;SDS011;57451;52.496;13.456;2023-08-31T07:43:23;8.45;;;4.45;;
70078;SDS011;57451;52.496;13.456;2023-08-31T07:45:51;7.72;;;4.47;;
70078;SDS011;57451;52.496;13.456;2023-08-31T07:48:19;8.35;;;4.85;;
70078;SDS011;57451;52.496;13.456;2023-08-31T07:50:46;9.37;;;4.80;;
70078;SDS011;57451;52.496;13.456;2023-08-31T07:53:15;8.68;;;4.30;;
70078;SDS011;57451;52.496;13.456;2023-08-31T07:55:50;10.90;;;4.68;;
70078;SDS011;57451;52.496;13.456;2023-08-31T07:58:21;8.38;;;4.68;;
70078;SDS011;57451;52.496;13.456;2023-08-31T08:00:49;8.77;;;4.68;;
70078;SDS011;57451;52.496;13.456;2023-08-31T08:03:19;8.07;;;4.37;;
70078;SDS011;57451;52.496;13.456;2023-08-31T08:05:47;6.55;;;3.83;;
70078;SDS011;57451;52.496;13.456;2023-08-31T08:08:15;6.22;;;3.50;;
70078;SDS011;57451;52.496;13.456;2023-08-31T08:10:42;7.30;;;3.40;;
70078;SDS011;57451;52.496;13.456;2023-08-31T08:13:10;7.50;;;2.75;;
70078;SDS011;57451;52.496;13.456;2023-08-31T08:15:39;5.63;;;2.70;;
70078;SDS011;57451;52.496;13.456;2023-08-31T08:18:06;6.35;;;3.33;;
70078;SDS011;57451;52.496;13.456;2023-08-31T08:20:34;5.78;;;2.97;;
70078;SDS011;57451;52.496;13.456;2023-08-31T08:23:01;8.93;;;3.28;;
70078;SDS011;57451;52.496;13.456;2023-08-31T08:25:29;7.68;;;3.40;;
70078;SDS011;57451;52.496;13.456;2023-08-31T08:27:56;5.50;;;3.03;;
70078;SDS011;57451;52.496;13.456;2023-08-31T08:30:23;7.13;;;3.20;;
70078;SDS011;57451;52.496;13.456;2023-08-31T08:32:52;5.93;;;3.10;;
70078;SDS011;57451;52.496;13.456;2023-08-31T08:35:20;5.57;;;3.08;;
70078;SDS011;57451;52.496;13.456;2023-08-31T08:37:47;6.10;;;2.90;;
70078;SDS011;57451;52.496;13.456;2023-08-31T08:40:15;6.57;;;2.60;;
70078;SDS011;57451;52.496;13.456;2023-08-31T08:42:43;5.50;;;2.40;;
70078;SDS011;57451;52.496;13.456;2023-08-31T08:45:14;6.43;;;2.40;;
70078;SDS011;57451;52.496;13.456;2023-08-31T08:47:42;5.13;;;2.63;;
70078;SDS011;57451;52.496;13.456;2023-08-31T08:50:12;5.75;;;2.33;;
70078;SDS011;57451;52.496;13.456;2023-08-31T08:52:40;7.13;;;2.20;;
70078;SDS011;57451;52.496;13.456;2023-08-31T08:55:09;6.32;;;2.00;;
70078;SDS011;57451;52.496;13.456;2023-08-31T08:57:36;6.05;;;2.10;;
70078;SDS011;57451;52.496;13.456;2023-08-31T09:00:06;4.57;;;1.95;;
70078;SDS011;57451;52.496;13.456;2023-08-31T09:02:35;4.28;;;1.80;;
70078;SDS011;57451;52.496;13.456;2023-08-31T09:05:02;6.67;;;2.10;;
70078;SDS011;57451;52.496;13.456;2023-08-31T09:07:33;4.07;;;1.80;;
70078;SDS011;57451;52.496;13.456;2023-08-31T09:10:03;4.25;;;1.85;;
70078;SDS011;57451;52.496;13.456;2023-08-31T09:12:31;4.50;;;1.80;;
70078;SDS011;57451;52.496;13.456;2023-08-31T09:15:03;5.28;;;1.90;;
70078;SDS011;57451;52.496;13.456;2023-08-31T09:17:38;4.70;;;1.70;;
70078;SDS011;57451;52.496;13.456;2023-08-31T09:20:09;5.30;;;1.52;;
70078;SDS011;57451;52.496;13.456;2023-08-31T09:22:39;4.88;;;2.00;;
70078;SDS011;57451;52.496;13.456;2023-08-31T09:25:09;5.18;;;2.00;;
70078;SDS011;57451;52.496;13.456;2023-08-31T09:27:37;4.25;;;2.03;;
70078;SDS011;57451;52.496;13.456;2023-08-31T09:30:06;4.90;;;2.00;;
70078;SDS011;57451;52.496;13.456;2023-08-31T09:32:34;4.90;;;1.83;;
70078;SDS011;57451;52.496;13.456;2023-08-31T09:35:03;5.25;;;1.60;;
70078;SDS011;57451;52.496;13.456;2023-08-31T09:37:55;6.78;;;2.22;;
70078;SDS011;57451;52.496;13.456;2023-08-31T09:40:26;4.93;;;1.85;;
70078;SDS011;57451;52.496;13.456;2023-08-31T09:42:53;4.37;;;1.80;;
70078;SDS011;57451;52.496;13.456;2023-08-31T09:45:25;5.18;;;2.05;;
70078;SDS011;57451;52.496;13.456;2023-08-31T09:48:10;5.90;;;2.20;;
70078;SDS011;57451;52.496;13.456;2023-08-31T09:50:38;5.30;;;1.80;;
70078;SDS011;57451;52.496;13.456;2023-08-31T09:53:07;5.45;;;2.20;;
70078;SDS011;57451;52.496;13.456;2023-08-31T09:55:38;5.27;;;1.90;;
70078;SDS011;57451;52.496;13.456;2023-08-31T09:58:07;6.40;;;2.03;;
70078;SDS011;57451;52.496;13.456;2023-08-31T10:00:42;4.18;;;1.67;;
70078;SDS011;57451;52.496;13.456;2023-08-31T10:03:11;5.65;;;1.90;;
70078;SDS011;57451;52.496;13.456;2023-08-31T10:05:45;5.40;;;1.80;;
70078;SDS011;57451;52.496;13.456;2023-08-31T10:08:16;5.10;;;1.70;;
70078;SDS011;57451;52.496;13.456;2023-08-31T10:10:44;3.42;;;1.40;;
70078;SDS011;57451;52.496;13.456;2023-08-31T10:13:13;4.75;;;1.50;;
70078;SDS011;57451;52.496;13.456;2023-08-31T10:15:43;5.60;;;1.45;;
70078;SDS011;57451;52.496;13.456;2023-08-31T10:18:11;4.05;;;1.20;;
70078;SDS011;57451;52.496;13.456;2023-08-31T10:20:39;4.57;;;1.40;;
70078;SDS011;57451;52.496;13.456;2023-08-31T10:23:09;4.00;;;1.38;;
70078;SDS011;57451;52.496;13.456;2023-08-31T10:28:30;6.22;;;1.20;;
70078;SDS011;57451;52.496;13.456;2023-08-31T10:31:07;5.53;;;1.50;;
70078;SDS011;57451;52.496;13.456;2023-08-31T10:33:39;4.73;;;1.37;;
70078;SDS011;57451;52.496;13.456;2023-08-31T10:36:12;5.43;;;1.70;;
70078;SDS011;57451;52.496;13.456;2023-08-31T10:38:41;5.28;;;1.80;;
70078;SDS011;57451;52.496;13.456;2023-08-31T10:41:20;6.60;;;1.27;;
70078;SDS011;57451;52.496;13.456;2023-08-31T10:43:49;4.93;;;1.35;;
70078;SDS011;57451;52.496;13.456;2023-08-31T10:46:18;5.57;;;1.53;;
70078;SDS011;57451;52.496;13.456;2023-08-31T10:48:52;5.70;;;1.30;;
70078;SDS011;57451;52.496;13.456;2023-08-31T10:51:21;3.97;;;1.35;;
70078;SDS011;57451;52.496;13.456;2023-08-31T10:53:50;4.78;;;1.20;;
70078;SDS011;57451;52.496;13.456;2023-08-31T10:56:18;5.43;;;1.30;;
70078;SDS011;57451;52.496;13.456;2023-08-31T10:58:56;3.37;;;1.30;;
70078;SDS011;57451;52.496;13.456;2023-08-31T11:04:21;3.80;;;1.45;;
70078;SDS011;57451;52.496;13.456;2023-08-31T11:06:49;4.65;;;1.52;;
70078;SDS011;57451;52.496;13.456;2023-08-31T11:09:32;3.70;;;1.70;;
70078;SDS011;57451;52.496;13.456;2023-08-31T11:12:01;3.80;;;1.57;;
70078;SDS011;57451;52.496;13.456;2023-08-31T11:14:30;5.13;;;1.95;;
70078;SDS011;57451;52.496;13.456;2023-08-31T11:16:57;6.00;;;1.88;;
70078;SDS011;57451;52.496;13.456;2023-08-31T11:19:27;4.25;;;1.75;;
70078;SDS011;57451;52.496;13.456;2023-08-31T11:21:55;4.85;;;1.67;;
70078;SDS011;57451;52.496;13.456;2023-08-31T11:24:22;4.63;;;1.70;;
70078;SDS011;57451;52.496;13.456;2023-08-31T11:26:50;4.25;;;1.83;;
70078;SDS011;57451;52.496;13.456;2023-08-31T11:29:19;5.40;;;1.98;;
70078;SDS011;57451;52.496;13.456;2023-08-31T11:31:46;4.22;;;1.50;;
70078;SDS011;57451;52.496;13.456;2023-08-31T11:34:14;4.55;;;1.73;;
70078;SDS011;57451;52.496;13.456;2023-08-31T11:36:42;3.83;;;1.90;;
70078;SDS011;57451;52.496;13.456;2023-08-31T11:39:10;6.05;;;1.80;;
70078;SDS011;57451;52.496;13.456;2023-08-31T11:41:38;5.38;;;1.90;;
70078;SDS011;57451;52.496;13.456;2023-08-31T11:44:09;6.18;;;2.10;;
70078;SDS011;57451;52.496;13.456;2023-08-31T11:46:38;4.10;;;1.80;;
70078;SDS011;57451;52.496;13.456;2023-08-31T11:49:07;3.40;;;1.60;;
70078;SDS011;57451;52.496;13.456;2023-08-31T11:51:35;5.30;;;2.00;;
70078;SDS011;57451;52.496;13.456;2023-08-31T11:54:06;5.05;;;2.00;;
70078;SDS011;57451;52.496;13.456;2023-08-31T11:56:39;5.25;;;1.70;;
70078;SDS011;57451;52.496;13.456;2023-08-31T11:59:08;3.83;;;1.58;;
70078;SDS011;57451;52.496;13.456;2023-08-31T12:01:38;4.40;;;1.50;;
70078;SDS011;57451;52.496;13.456;2023-08-31T12:04:11;3.70;;;1.70;;
70078;SDS011;57451;52.496;13.456;2023-08-31T12:06:39;5.45;;;1.77;;
70078;SDS011;57451;52.496;13.456;2023-08-31T12:09:07;4.78;;;2.17;;
70078;SDS011;57451;52.496;13.456;2023-08-31T12:11:35;5.22;;;2.08;;
70078;SDS011;57451;52.496;13.456;2023-08-31T12:14:03;7.87;;;2.20;;
70078;SDS011;57451;52.496;13.456;2023-08-31T12:16:46;6.88;;;2.58;;
70078;SDS011;57451;52.496;13.456;2023-08-31T12:19:13;5.43;;;1.90;;
70078;SDS011;57451;52.496;13.456;2023-08-31T12:21:42;6.38;;;2.20;;
70078;SDS011;57451;52.496;13.456;2023-08-31T12:24:11;4.20;;;1.90;;
70078;SDS011;57451;52.496;13.456;2023-08-31T12:26:38;4.93;;;1.97;;
70078;SDS011;57451;52.496;13.456;2023-08-31T12:29:07;4.65;;;1.80;;
70078;SDS011;57451;52.496;13.456;2023-08-31T12:31:35;4.93;;;1.85;;
70078;SDS011;57451;52.496;13.456;2023-08-31T12:34:04;3.85;;;1.70;;
70078;SDS011;57451;52.496;13.456;2023-08-31T12:36:33;4.82;;;2.00;;
70078;SDS011;57451;52.496;13.456;2023-08-31T12:39:03;6.10;;;2.33;;
70078;SDS011;57451;52.496;13.456;2023-08-31T12:41:33;7.60;;;2.65;;
70078;SDS011;57451;52.496;13.456;2023-08-31T12:44:00;6.30;;;2.00;;
70078;SDS011;57451;52.496;13.456;2023-08-31T12:46:29;4.43;;;1.70;;
70078;SDS011;57451;52.496;13.456;2023-08-31T12:48:58;3.80;;;1.60;;
70078;SDS011;57451;52.496;13.456;2023-08-31T12:51:27;5.73;;;2.20;;
70078;SDS011;57451;52.496;13.456;2023-08-31T12:53:55;4.63;;;2.28;;
70078;SDS011;57451;52.496;13.456;2023-08-31T12:56:23;4.93;;;2.13;;
70078;SDS011;57451;52.496;13.456;2023-08-31T12:58:50;6.40;;;2.10;;
70078;SDS011;57451;52.496;13.456;2023-08-31T13:01:19;4.90;;;2.00;;
70078;SDS011;57451;52.496;13.456;2023-08-31T13:03:47;6.50;;;1.90;;
70078;SDS011;57451;52.496;13.456;2023-08-31T13:06:15;3.92;;;1.88;;
70078;SDS011;57451;52.496;13.456;2023-08-31T13:08:46;5.00;;;1.80;;
70078;SDS011;57451;52.496;13.456;2023-08-31T13:11:14;3.55;;;1.67;;
70078;SDS011;57451;52.496;13.456;2023-08-31T13:13:41;3.83;;;1.60;;
70078;SDS011;57451;52.496;13.456;2023-08-31T13:16:09;5.67;;;1.90;;
70078;SDS011;57451;52.496;13.456;2023-08-31T13:18:36;3.45;;;1.50;;
70078;SDS011;57451;52.496;13.456;2023-08-31T13:21:03;4.68;;;1.60;;
70078;SDS011;57451;52.496;13.456;2023-08-31T13:23:31;3.30;;;1.67;;
70078;SDS011;57451;52.496;13.456;2023-08-31T13:26:00;3.40;;;1.45;;
70078;SDS011;57451;52.496;13.456;2023-08-31T13:28:27;3.67;;;1.50;;
70078;SDS011;57451;52.496;13.456;2023-08-31T13:30:55;4.00;;;1.60;;
70078;SDS011;57451;52.496;13.456;2023-08-31T13:33:24;4.13;;;1.60;;
70078;SDS011;57451;52.496;13.456;2023-08-31T13:35:51;4.03;;;1.80;;
70078;SDS011;57451;52.496;13.456;2023-08-31T13:38:19;3.88;;;1.80;;
70078;SDS011;57451;52.496;13.456;2023-08-31T13:40:46;3.80;;;1.60;;
70078;SDS011;57451;52.496;13.456;2023-08-31T13:43:16;3.95;;;1.85;;
70078;SDS011;57451;52.496;13.456;2023-08-31T13:45:43;5.15;;;2.20;;
70078;SDS011;57451;52.496;13.456;2023-08-31T13:48:10;3.40;;;1.73;;
70078;SDS011;57451;52.496;13.456;2023-08-31T13:50:39;3.30;;;1.55;;
70078;SDS011;57451;52.496;13.456;2023-08-31T13:53:06;4.03;;;1.70;;
70078;SDS011;57451;52.496;13.456;2023-08-31T13:55:33;3.83;;;1.70;;
70078;SDS011;57451;52.496;13.456;2023-08-31T13:58:04;5.20;;;2.10;;
70078;SDS011;57451;52.496;13.456;2023-08-31T14:00:36;4.35;;;1.77;;
70078;SDS011;57451;52.496;13.456;2023-08-31T14:03:04;4.75;;;2.00;;
70078;SDS011;57451;52.496;13.456;2023-08-31T14:05:32;6.07;;;1.90;;
70078;SDS011;57451;52.496;13.456;2023-08-31T14:08:00;4.38;;;1.65;;
70078;SDS011;57451;52.496;13.456;2023-08-31T14:10:30;3.80;;;1.70;;
70078;SDS011;57451;52.496;13.456;2023-08-31T14:12:59;4.80;;;1.42;;
70078;SDS011;57451;52.496;13.456;2023-08-31T14:15:27;3.70;;;1.70;;
70078;SDS011;57451;52.496;13.456;2023-08-31T14:17:55;5.13;;;1.70;;
70078;SDS011;57451;52.496;13.456;2023-08-31T14:20:23;4.57;;;1.80;;
70078;SDS011;57451;52.496;13.456;2023-08-31T14:22:50;3.78;;;1.67;;
70078;SDS011;57451;52.496;13.456;2023-08-31T14:25:18;4.15;;;1.63;;
70078;SDS011;57451;52.496;13.456;2023-08-31T14:27:46;3.95;;;1.65;;
70078;SDS011;57451;52.496;13.456;2023-08-31T14:30:14;3.30;;;1.50;;
70078;SDS011;57451;52.496;13.456;2023-08-31T14:32:42;3.70;;;1.60;;
70078;SDS011;57451;52.496;13.456;2023-08-31T14:35:10;3.90;;;1.40;;
70078;SDS011;57451;52.496;13.456;2023-08-31T14:37:38;3.53;;;1.30;;
70078;SDS011;57451;52.496;13.456;2023-08-31T14:40:06;3.58;;;1.20;;
70078;SDS011;57451;52.496;13.456;2023-08-31T14:42:34;3.27;;;1.10;;
70078;SDS011;57451;52.496;13.456;2023-08-31T14:45:03;3.03;;;1.05;;
70078;SDS011;57451;52.496;13.456;2023-08-31T14:47:31;3.33;;;1.20;;
70078;SDS011;57451;52.496;13.456;2023-08-31T14:49:59;4.03;;;1.30;;